Time;durP1;ratioP1;P1;durP2;ratioP2;P2;SDS_P1;SDS_P2;PMS_P1;PMS_P2;Temp;Humidity;BMP_temperature;BMP_pressure;BME280_temperature;BME280_humidity;BME280_pressure;Samples;Min_cycle;Max_cycle;Signal;HPM_P1;HPM_P2
2022/06/12 00:00:46;;;;;;;0.00;0.00;;;16.60;1.00;;;;;;5051156;28;20287;-68
2022/06/12 00:03:17;;;;;;;0.00;0.00;;;16.50;1.00;;;;;;5054769;28;20574;-67
2022/06/12 00:05:48;;;;;;;0.00;0.00;;;16.50;1.00;;;;;;5054211;28;20220;-68
2022/06/12 00:08:16;;;;;;;0.00;0.00;;;16.50;1.00;;;;;;5053697;28;20202;-68
2022/06/12 00:10:47;;;;;;;0.00;0.00;;;16.50;1.00;;;;;;5054026;28;20704;-68
2022/06/12 00:13:20;;;;;;;0.00;0.00;;;16.50;1.00;;;;;;5043852;28;20186;-68
2022/06/12 00:15:48;;;;;;;0.00;0.00;;;16.30;1.00;;;;;;5051879;28;20209;-67
2022/06/12 00:18:16;;;;;;;0.00;0.00;;;16.30;1.00;;;;;;5053785;28;20611;-67
2022/06/12 00:20:45;;;;;;;0.10;0.10;;;16.20;1.00;;;;;;5054115;28;20248;-68
2022/06/12 00:23:16;;;;;;;0.00;0.00;;;16.30;1.00;;;;;;5052444;28;20219;-67
2022/06/12 00:25:44;;;;;;;0.00;0.00;;;16.40;1.00;;;;;;5046533;28;20203;-65
2022/06/12 00:28:12;;;;;;;0.00;0.00;;;16.30;1.00;;;;;;5054486;28;20194;-64
2022/06/12 00:30:43;;;;;;;0.05;0.05;;;16.10;1.00;;;;;;5054425;28;20198;-66
2022/06/12 00:33:10;;;;;;;0.00;0.00;;;16.00;1.00;;;;;;5057010;28;20669;-65
2022/06/12 00:35:38;;;;;;;0.10;0.10;;;15.90;1.00;;;;;;5056490;28;20206;-65
2022/06/12 00:38:06;;;;;;;0.00;0.00;;;16.00;1.00;;;;;;5049575;28;20249;-65
2022/06/12 00:40:35;;;;;;;0.00;0.00;;;16.00;1.00;;;;;;5051435;28;20676;-66
2022/06/12 00:43:04;;;;;;;0.00;0.00;;;16.00;1.00;;;;;;5092680;22;20221;-68
2022/06/12 00:45:40;;;;;;;0.10;0.10;;;15.90;1.00;;;;;;5079650;28;20216;-68
2022/06/12 00:48:12;;;;;;;0.00;0.00;;;16.00;1.00;;;;;;5075112;28;20193;-67
2022/06/12 00:50:44;;;;;;;0.00;0.00;;;15.80;1.00;;;;;;5072511;28;20251;-68
2022/06/12 00:53:17;;;;;;;0.00;0.00;;;15.80;1.00;;;;;;5073057;28;20217;-68
2022/06/12 00:55:54;;;;;;;0.00;0.00;;;15.80;1.00;;;;;;5072516;28;20217;-68
2022/06/12 00:58:25;;;;;;;0.00;0.00;;;15.90;1.00;;;;;;5072613;28;20224;-68
2022/06/12 01:00:54;;;;;;;0.00;0.00;;;15.80;1.00;;;;;;5072153;28;20205;-68
2022/06/12 01:03:25;;;;;;;0.00;0.00;;;15.90;1.00;;;;;;5072517;28;20271;-67
2022/06/12 01:08:40;;;;;;;0.00;0.00;;;15.70;1.00;;;;;;5072447;28;20677;-68
2022/06/12 01:11:11;;;;;;;0.00;0.00;;;15.70;1.00;;;;;;5072502;28;20190;-67
2022/06/12 01:13:43;;;;;;;0.00;0.00;;;15.60;1.00;;;;;;5070383;28;20205;-67
2022/06/12 01:16:14;;;;;;;0.10;0.10;;;15.60;1.00;;;;;;5070532;28;20288;-67
2022/06/12 01:18:49;;;;;;;0.00;0.00;;;15.70;1.00;;;;;;5071897;28;20535;-67
2022/06/12 01:21:48;;;;;;;0.00;0.00;;;15.60;1.00;;;;;;5062502;28;20209;-67
2022/06/12 01:24:31;;;;;;;0.03;0.03;;;15.50;1.00;;;;;;5071863;28;20201;-67
2022/06/12 01:27:23;;;;;;;0.00;0.00;;;15.50;1.00;;;;;;5072373;28;20255;-67
2022/06/12 01:29:59;;;;;;;0.00;0.00;;;15.50;1.00;;;;;;5071772;28;20259;-67
2022/06/12 01:32:34;;;;;;;0.00;0.00;;;15.50;1.00;;;;;;5064733;28;20229;-68
2022/06/12 01:35:09;;;;;;;0.00;0.00;;;15.50;1.00;;;;;;5062529;28;20208;-68
2022/06/12 01:37:47;;;;;;;0.00;0.00;;;15.50;1.00;;;;;;5067420;28;20675;-68
2022/06/12 01:40:26;;;;;;;0.00;0.00;;;15.60;1.00;;;;;;5061132;28;20198;-68
2022/06/12 01:43:02;;;;;;;0.00;0.00;;;15.60;1.00;;;;;;5051866;28;20225;-68
2022/06/12 01:45:39;;;;;;;0.00;0.00;;;15.40;1.00;;;;;;5070607;28;20197;-68
2022/06/12 01:48:19;;;;;;;0.00;0.00;;;15.40;1.00;;;;;;5071586;28;20201;-68
2022/06/12 01:50:54;;;;;;;0.00;0.00;;;15.40;13.20;;;;;;5071953;28;20201;-67
2022/06/12 01:53:30;;;;;;;0.00;0.00;;;15.40;1.00;;;;;;5071739;28;20248;-68
2022/06/12 01:56:06;;;;;;;0.00;0.00;;;15.40;1.00;;;;;;5071176;28;20197;-67
2022/06/12 01:58:45;;;;;;;0.00;0.00;;;15.40;1.00;;;;;;5060886;28;20197;-67
2022/06/12 02:01:24;;;;;;;0.00;0.00;;;15.30;1.00;;;;;;5063135;28;20205;-68
2022/06/12 02:03:58;;;;;;;0.00;0.00;;;15.30;1.00;;;;;;5068934;28;20224;-68
2022/06/12 02:06:31;;;;;;;0.08;0.08;;;15.30;1.00;;;;;;5066231;28;20696;-68
2022/06/12 02:09:11;;;;;;;0.03;0.03;;;15.40;3.70;;;;;;5071598;28;20243;-68
2022/06/12 02:14:35;;;;;;;0.00;0.00;;;15.40;1.00;;;;;;5071606;28;20245;-68
2022/06/12 02:17:09;;;;;;;0.00;0.00;;;15.40;1.00;;;;;;5070617;28;20259;-68
2022/06/12 02:19:43;;;;;;;0.00;0.00;;;15.40;1.00;;;;;;5064104;28;20209;-68
2022/06/12 02:22:24;;;;;;;0.00;0.00;;;15.40;1.00;;;;;;5069197;28;20233;-68
2022/06/12 02:24:56;;;;;;;0.00;0.00;;;15.60;1.00;;;;;;5069560;28;20201;-68
2022/06/12 02:27:31;;;;;;;0.00;0.00;;;15.50;1.00;;;;;;5071127;28;20247;-68
2022/06/12 02:30:03;;;;;;;0.00;0.00;;;15.40;1.00;;;;;;5071532;28;20672;-68
2022/06/12 02:32:35;;;;;;;0.00;0.00;;;15.50;1.00;;;;;;5070192;28;20218;-69
2022/06/12 02:35:07;;;;;;;0.00;0.00;;;15.40;1.00;;;;;;5070986;28;20189;-68
2022/06/12 02:37:41;;;;;;;0.00;0.00;;;15.50;1.00;;;;;;5069801;28;20319;-70
2022/06/12 02:40:18;;;;;;;0.00;0.00;;;15.50;1.00;;;;;;5071439;28;20201;-69
2022/06/12 02:42:49;;;;;;;0.00;0.00;;;15.50;1.00;;;;;;5071047;28;20267;-69
2022/06/12 02:45:24;;;;;;;0.00;0.00;;;15.50;1.00;;;;;;5070797;28;20244;-68
2022/06/12 02:47:53;;;;;;;0.00;0.00;;;15.50;1.00;;;;;;5070702;28;20193;-69
2022/06/12 02:50:24;;;;;;;0.00;0.00;;;15.50;1.00;;;;;;5068928;28;20255;-69
2022/06/12 02:53:03;;;;;;;0.00;0.00;;;15.50;1.00;;;;;;5063251;28;20229;-69
2022/06/12 02:55:38;;;;;;;0.10;0.10;;;15.60;1.00;;;;;;5060552;28;20205;-69
2022/06/12 02:58:14;;;;;;;0.00;0.00;;;15.50;1.00;;;;;;5070974;28;20612;-69
2022/06/12 03:00:46;;;;;;;0.00;0.00;;;15.40;1.00;;;;;;5071272;28;20205;-69
2022/06/12 03:03:24;;;;;;;0.00;0.00;;;15.30;1.00;;;;;;5071048;28;20228;-69
2022/06/12 03:05:54;;;;;;;0.00;0.00;;;15.40;1.00;;;;;;5070787;28;20485;-69
2022/06/12 03:08:26;;;;;;;0.00;0.00;;;15.40;1.00;;;;;;5070302;28;20213;-69
2022/06/12 03:10:57;;;;;;;0.00;0.00;;;15.50;1.00;;;;;;5071197;28;20334;-69
2022/06/12 03:13:27;;;;;;;0.00;0.00;;;15.60;1.00;;;;;;5064306;28;20222;-69
2022/06/12 03:15:57;;;;;;;0.00;0.00;;;15.60;1.00;;;;;;5065726;28;20601;-69
2022/06/12 03:18:30;;;;;;;0.00;0.00;;;15.60;1.00;;;;;;5069195;28;20210;-68
2022/06/12 03:21:08;;;;;;;0.00;0.00;;;15.50;1.00;;;;;;5070585;28;20198;-69
2022/06/12 03:23:54;;;;;;;0.00;0.00;;;15.50;1.00;;;;;;5070615;28;20276;-69
2022/06/12 03:26:27;;;;;;;0.00;0.00;;;15.50;1.00;;;;;;5068793;28;20202;-68
2022/06/12 03:29:04;;;;;;;0.00;0.00;;;15.50;1.00;;;;;;5050832;28;20202;-69
2022/06/12 03:31:40;;;;;;;0.00;0.00;;;15.50;1.00;;;;;;5050766;28;20260;-69
2022/06/12 03:34:18;;;;;;;0.00;0.00;;;15.40;1.00;;;;;;5053311;28;20576;-69
2022/06/12 03:36:53;;;;;;;0.00;0.00;;;15.30;1.00;;;;;;5070472;28;20204;-68
2022/06/12 03:39:26;;;;;;;0.00;0.00;;;15.20;1.00;;;;;;5060277;28;20188;-68
2022/06/12 03:42:00;;;;;;;0.10;0.10;;;15.20;1.00;;;;;;5070516;28;20278;-68
2022/06/12 03:44:35;;;;;;;0.00;0.00;;;15.30;1.00;;;;;;5071244;28;20206;-68
2022/06/12 03:47:10;;;;;;;0.00;0.00;;;15.30;1.00;;;;;;5077051;28;20668;-68
2022/06/12 03:49:46;;;;;;;0.00;0.00;;;15.40;1.00;;;;;;5090788;28;20329;-68
2022/06/12 03:52:20;;;;;;;0.00;0.00;;;15.40;1.00;;;;;;5099391;28;20213;-68
2022/06/12 03:54:52;;;;;;;0.00;0.00;;;15.40;1.00;;;;;;5089966;28;20205;-68
2022/06/12 04:00:17;;;;;;;0.00;0.00;;;15.40;1.00;;;;;;5073337;28;20228;-68
2022/06/12 04:02:47;;;;;;;0.00;0.00;;;15.40;1.00;;;;;;5056893;28;20225;-68
2022/06/12 04:05:22;;;;;;;0.00;0.00;;;15.40;1.00;;;;;;5067065;28;20227;-67
2022/06/12 04:07:52;;;;;;;0.00;0.00;;;15.50;1.00;;;;;;5063568;28;20213;-67
2022/06/12 04:10:25;;;;;;;0.00;0.00;;;15.50;1.00;;;;;;5072620;28;20619;-68
2022/06/12 04:12:53;;;;;;;0.00;0.00;;;15.60;1.00;;;;;;5062995;28;20218;-68
2022/06/12 04:15:25;;;;;;;0.10;0.10;;;15.60;1.00;;;;;;5066247;28;20202;-68
2022/06/12 04:17:55;;;;;;;0.00;0.00;;;15.60;1.00;;;;;;5069296;28;20212;-68
2022/06/12 04:20:28;;;;;;;0.00;0.00;;;15.60;1.00;;;;;;5073934;28;20213;-68
2022/06/12 04:23:00;;;;;;;0.00;0.00;;;15.60;1.00;;;;;;5066234;28;20680;-68
2022/06/12 04:25:36;;;;;;;0.00;0.00;;;15.70;1.00;;;;;;5069033;28;20201;-67
2022/06/12 04:28:06;;;;;;;0.00;0.00;;;15.70;1.00;;;;;;5071294;28;20189;-67
2022/06/12 04:30:36;;;;;;;0.00;0.00;;;15.80;1.00;;;;;;5068784;28;20252;-67
2022/06/12 04:33:30;;;;;;;0.00;0.00;;;15.80;1.00;;;;;;5062733;28;20205;-68
2022/06/12 04:36:01;;;;;;;0.00;0.00;;;15.90;1.00;;;;;;5072756;28;20212;-68
2022/06/12 04:38:30;;;;;;;0.00;0.00;;;15.90;1.00;;;;;;5070087;28;20251;-67
2022/06/12 04:40:58;;;;;;;0.00;0.00;;;15.90;1.00;;;;;;5053441;28;20202;-68
2022/06/12 04:43:27;;;;;;;0.00;0.00;;;16.00;1.00;;;;;;5054202;28;20266;-68
2022/06/12 04:45:55;;;;;;;0.00;0.00;;;16.10;1.00;;;;;;5068676;28;20230;-69
2022/06/12 04:48:36;;;;;;;0.00;0.00;;;16.10;1.00;;;;;;5071956;28;20750;-69
2022/06/12 04:51:07;;;;;;;0.00;0.00;;;16.20;1.00;;;;;;5066538;28;20198;-69
2022/06/12 04:53:35;;;;;;;0.00;0.00;;;16.20;1.00;;;;;;5053035;28;20263;-69
2022/06/12 04:56:03;;;;;;;0.00;0.00;;;16.30;1.00;;;;;;5068906;28;20730;-69
2022/06/12 04:58:31;;;;;;;0.00;0.00;;;16.30;1.00;;;;;;5070556;28;20251;-69
2022/06/12 05:00:59;;;;;;;0.00;0.00;;;16.40;1.00;;;;;;5057650;28;20195;-69
2022/06/12 05:03:27;;;;;;;0.00;0.00;;;16.50;1.00;;;;;;5052962;28;20214;-69
2022/06/12 05:05:55;;;;;;;0.00;0.00;;;16.50;1.00;;;;;;5055412;28;20206;-69
2022/06/12 05:08:25;;;;;;;0.00;0.00;;;16.60;1.00;;;;;;5069194;28;20194;-69
2022/06/12 05:10:53;;;;;;;0.00;0.00;;;16.70;1.00;;;;;;5071604;28;20209;-68
2022/06/12 05:13:21;;;;;;;0.00;0.00;;;16.80;1.00;;;;;;5070887;28;20217;-68
2022/06/12 05:15:49;;;;;;;0.00;0.00;;;16.90;1.00;;;;;;5071665;28;20566;-68
2022/06/12 05:18:20;;;;;;;0.00;0.00;;;17.00;1.00;;;;;;5068661;28;20193;-67
2022/06/12 05:20:48;;;;;;;0.00;0.00;;;17.10;1.00;;;;;;5057241;28;20202;-68
2022/06/12 05:23:18;;;;;;;0.00;0.00;;;17.20;99.90;;;;;;5060392;28;20681;-68
2022/06/12 05:25:48;;;;;;;0.00;0.00;;;17.30;99.90;;;;;;5067024;28;20197;-68
2022/06/12 05:28:18;;;;;;;0.00;0.00;;;17.40;99.90;;;;;;5066599;28;20205;-67
2022/06/12 05:30:46;;;;;;;0.00;0.00;;;17.50;99.90;;;;;;5065897;28;20202;-67
2022/06/12 05:33:15;;;;;;;0.00;0.00;;;17.60;99.90;;;;;;5054316;28;20565;-67
2022/06/12 05:35:43;;;;;;;0.00;0.00;;;17.70;99.90;;;;;;5065280;28;20194;-68
2022/06/12 05:38:12;;;;;;;0.00;0.00;;;17.70;92.60;;;;;;5063966;28;20198;-67
2022/06/12 05:40:41;;;;;;;0.00;0.00;;;17.80;17.10;;;;;;5061755;28;20206;-67
2022/06/12 05:43:12;;;;;;;0.00;0.00;;;17.90;1.00;;;;;;5053146;28;20237;-68
2022/06/12 05:45:40;;;;;;;0.00;0.00;;;18.00;1.00;;;;;;5066549;28;20599;-68
2022/06/12 05:48:12;;;;;;;0.00;0.00;;;18.10;1.00;;;;;;5071613;28;20202;-68
2022/06/12 05:50:47;;;;;;;0.00;0.00;;;18.10;1.00;;;;;;5069599;28;20699;-67
2022/06/12 05:53:16;;;;;;;0.00;0.00;;;18.20;1.00;;;;;;5076779;28;20498;-67
2022/06/12 05:55:44;;;;;;;0.00;0.00;;;18.30;1.00;;;;;;5076971;28;20694;-68
2022/06/12 05:58:15;;;;;;;0.00;0.00;;;18.40;1.00;;;;;;5072592;28;20190;-67
2022/06/12 06:00:44;;;;;;;0.00;0.00;;;18.50;1.00;;;;;;5069718;28;20544;-67
2022/06/12 06:03:12;;;;;;;0.00;0.00;;;18.50;1.00;;;;;;5055162;28;20230;-68
2022/06/12 06:05:41;;;;;;;0.00;0.00;;;18.60;1.00;;;;;;5064703;28;20197;-68
2022/06/12 06:08:10;;;;;;;0.00;0.00;;;18.70;1.00;;;;;;5066935;28;20195;-68
2022/06/12 06:10:39;;;;;;;0.00;0.00;;;18.80;1.00;;;;;;5067412;28;20197;-68
2022/06/12 06:13:07;;;;;;;0.03;0.03;;;18.90;99.90;;;;;;5056475;28;20229;-68
2022/06/12 06:15:37;;;;;;;0.00;0.00;;;19.10;99.90;;;;;;5067441;28;20239;-68
2022/06/12 06:18:07;;;;;;;0.00;0.00;;;19.20;26.20;;;;;;5065431;28;20190;-68
2022/06/12 06:20:38;;;;;;;0.00;0.00;;;19.40;1.00;;;;;;5057358;28;20245;-68
2022/06/12 06:23:06;;;;;;;0.00;0.00;;;19.60;1.00;;;;;;5060956;28;20206;-68
2022/06/12 06:25:35;;;;;;;0.00;0.00;;;19.70;1.00;;;;;;5061352;28;20218;-68
2022/06/12 06:28:04;;;;;;;0.00;0.00;;;19.80;1.00;;;;;;5064179;28;20198;-68
2022/06/12 06:30:32;;;;;;;0.00;0.00;;;20.00;99.90;;;;;;5052066;28;20198;-68
2022/06/12 06:33:02;;;;;;;0.00;0.00;;;20.10;1.00;;;;;;5069199;28;20218;-68
2022/06/12 06:35:30;;;;;;;0.00;0.00;;;20.30;1.00;;;;;;5071158;28;20189;-68
2022/06/12 06:37:58;;;;;;;0.00;0.00;;;20.50;1.00;;;;;;5064928;28;20226;-68
2022/06/12 06:40:29;;;;;;;0.00;0.00;;;20.60;99.90;;;;;;5070546;28;20691;-68
2022/06/12 06:42:58;;;;;;;0.00;0.00;;;20.80;1.00;;;;;;5067305;22;20685;-68
2022/06/12 06:48:14;;;;;;;0.00;0.00;;;21.30;99.90;;;;;;5026538;28;20226;-69
2022/06/12 06:50:43;;;;;;;0.00;0.00;;;21.60;99.90;;;;;;5027923;28;20195;-68
2022/06/12 06:53:11;;;;;;;0.00;0.00;;;21.70;1.00;;;;;;5024683;28;20701;-68
2022/06/12 06:55:40;;;;;;;0.00;0.00;;;21.90;99.90;;;;;;5027718;28;20609;-68
2022/06/12 06:58:11;;;;;;;0.00;0.00;;;22.10;60.60;;;;;;5021188;28;20611;-69
2022/06/12 07:00:42;;;;;;;0.00;0.00;;;22.20;1.00;;;;;;5012835;28;20581;-68
2022/06/12 07:03:11;;;;;;;0.00;0.00;;;22.40;1.00;;;;;;5011435;28;20220;-68
2022/06/12 07:05:43;;;;;;;0.00;0.00;;;22.60;1.00;;;;;;5025160;28;20223;-68
2022/06/12 07:08:11;;;;;;;0.00;0.00;;;22.70;1.00;;;;;;5019436;28;20203;-67
2022/06/12 07:10:41;;;;;;;0.00;0.00;;;22.70;1.00;;;;;;5027028;28;20210;-68
2022/06/12 07:13:09;;;;;;;0.00;0.00;;;22.90;99.90;;;;;;5021914;28;20227;-67
2022/06/12 07:15:37;;;;;;;0.00;0.00;;;23.10;96.90;;;;;;5018367;28;20199;-67
2022/06/12 07:18:08;;;;;;;0.00;0.00;;;23.20;99.90;;;;;;5020848;28;20263;-67
2022/06/12 07:20:38;;;;;;;0.00;0.00;;;23.40;99.90;;;;;;5021072;28;20215;-69
2022/06/12 07:23:08;;;;;;;0.00;0.00;;;23.50;99.90;;;;;;5017546;28;20756;-67
2022/06/12 07:25:40;;;;;;;0.00;0.00;;;23.70;99.90;;;;;;5028293;28;20600;-67
2022/06/12 07:28:08;;;;;;;0.00;0.00;;;23.80;99.90;;;;;;5021796;28;20210;-72
2022/06/12 07:30:37;;;;;;;0.00;0.00;;;23.90;99.90;;;;;;5020666;28;20246;-71
2022/06/12 07:33:06;;;;;;;0.00;0.00;;;24.10;99.90;;;;;;5023367;28;20219;-69
2022/06/12 07:35:34;;;;;;;0.00;0.00;;;24.20;99.90;;;;;;5033341;28;20191;-68
2022/06/12 07:38:02;;;;;;;0.00;0.00;;;24.30;99.90;;;;;;5034396;28;20249;-67
2022/06/12 07:40:35;;;;;;;0.00;0.00;;;24.40;99.90;;;;;;5017820;28;20228;-70
2022/06/12 07:43:02;;;;;;;0.00;0.00;;;24.30;99.90;;;;;;5003633;28;20244;-68
2022/06/12 07:45:31;;;;;;;0.00;0.00;;;24.30;99.90;;;;;;5005354;28;20231;-68
2022/06/12 07:47:59;;;;;;;0.00;0.00;;;24.50;99.90;;;;;;5014537;28;20238;-68
2022/06/12 07:50:27;;;;;;;0.00;0.00;;;24.70;99.90;;;;;;4998834;28;20200;-68
2022/06/12 07:52:55;;;;;;;0.00;0.00;;;24.90;99.90;;;;;;4995023;28;20216;-68
2022/06/12 07:55:23;;;;;;;0.00;0.00;;;25.10;99.90;;;;;;5000850;28;20199;-68
2022/06/12 07:57:53;;;;;;;0.00;0.00;;;25.20;99.90;;;;;;5000201;28;20625;-70
2022/06/12 08:00:21;;;;;;;0.00;0.00;;;25.40;99.50;;;;;;4995975;28;20664;-67
2022/06/12 08:02:49;;;;;;;0.00;0.00;;;25.40;98.60;;;;;;4995303;28;20584;-68
2022/06/12 08:05:20;;;;;;;0.00;0.00;;;25.50;97.70;;;;;;4997156;28;20680;-68
2022/06/12 08:07:48;;;;;;;0.00;0.00;;;25.40;97.80;;;;;;5014532;28;20487;-68
2022/06/12 08:10:17;;;;;;;0.00;0.00;;;25.40;98.00;;;;;;5014953;28;20206;-72
2022/06/12 08:12:46;;;;;;;0.00;0.00;;;25.50;98.30;;;;;;5014908;28;20224;-67
2022/06/12 08:15:18;;;;;;;0.00;0.00;;;25.80;96.60;;;;;;5015279;28;20539;-67
2022/06/12 08:17:46;;;;;;;0.00;0.00;;;25.90;96.70;;;;;;5014767;28;20207;-67
2022/06/12 08:20:28;;;;;;;0.00;0.00;;;26.00;96.40;;;;;;5014870;28;20242;-67
2022/06/12 08:23:01;;;;;;;0.00;0.00;;;26.20;95.90;;;;;;5014366;28;20223;-67
2022/06/12 08:25:32;;;;;;;0.00;0.00;;;26.20;95.60;;;;;;5014400;28;20235;-68
2022/06/12 08:28:01;;;;;;;0.00;0.00;;;26.20;95.50;;;;;;5014024;28;20204;-67
2022/06/12 08:30:31;;;;;;;0.00;0.00;;;26.10;95.30;;;;;;5013814;28;20199;-68
2022/06/12 08:32:59;;;;;;;0.00;0.00;;;26.10;95.10;;;;;;5013681;28;20290;-71
2022/06/12 08:35:31;;;;;;;0.00;0.00;;;26.20;95.10;;;;;;5013127;28;20606;-67
2022/06/12 08:37:59;;;;;;;0.00;0.00;;;26.10;94.70;;;;;;5013903;28;20689;-69
2022/06/12 08:40:36;;;;;;;0.00;0.00;;;25.80;94.90;;;;;;5013748;28;20199;-68
2022/06/12 08:43:11;;;;;;;0.00;0.00;;;25.70;95.30;;;;;;5013779;28;20223;-67
2022/06/12 08:45:45;;;;;;;0.00;0.00;;;25.70;94.70;;;;;;5013621;28;20641;-68
2022/06/12 08:48:21;;;;;;;0.00;0.00;;;25.60;94.90;;;;;;5013630;28;20473;-66
2022/06/12 08:50:53;;;;;;;0.00;0.00;;;25.70;94.80;;;;;;5013946;28;20553;-66
2022/06/12 08:53:27;;;;;;;0.00;0.00;;;25.80;94.90;;;;;;5013566;28;20269;-69
2022/06/12 08:56:00;;;;;;;0.00;0.00;;;25.90;95.00;;;;;;5014053;28;20254;-66
2022/06/12 08:58:33;;;;;;;0.00;0.00;;;25.80;95.30;;;;;;5014015;28;20200;-69
2022/06/12 09:01:02;;;;;;;0.00;0.00;;;25.90;95.40;;;;;;5014111;28;20191;-70
2022/06/12 09:03:36;;;;;;;0.00;0.00;;;25.90;94.60;;;;;;5013109;28;20772;-70
2022/06/12 09:06:18;;;;;;;0.00;0.00;;;26.10;94.50;;;;;;5013826;28;20314;-70
2022/06/12 09:08:50;;;;;;;0.00;0.00;;;26.20;94.60;;;;;;5012986;28;20196;-71
2022/06/12 09:11:21;;;;;;;0.00;0.00;;;26.10;94.80;;;;;;5013349;28;20191;-69
2022/06/12 09:13:57;;;;;;;0.00;0.00;;;25.90;94.60;;;;;;5012955;28;20199;-69
2022/06/12 09:16:36;;;;;;;0.00;0.00;;;26.10;94.70;;;;;;5012889;28;20303;-69
2022/06/12 09:19:13;;;;;;;0.00;0.00;;;26.30;94.20;;;;;;5012770;28;20195;-67
2022/06/12 09:21:50;;;;;;;0.00;0.00;;;26.30;94.00;;;;;;5006597;28;20239;-68
2022/06/12 09:24:29;;;;;;;0.00;0.00;;;26.80;93.60;;;;;;5005447;28;20240;-67
2022/06/12 09:27:05;;;;;;;0.00;0.00;;;27.00;93.40;;;;;;4996354;28;20228;-67
2022/06/12 09:29:45;;;;;;;0.00;0.00;;;27.20;93.40;;;;;;4995536;28;20219;-67
2022/06/12 09:32:24;;;;;;;0.00;0.00;;;26.90;93.80;;;;;;5012920;28;20219;-69
2022/06/12 09:35:03;;;;;;;0.00;0.00;;;27.00;93.70;;;;;;5013053;28;20257;-68
2022/06/12 09:40:50;;;;;;;0.00;0.00;;;26.60;94.00;;;;;;4955069;28;20208;-68
2022/06/12 09:43:30;;;;;;;0.00;0.00;;;26.70;94.10;;;;;;4971170;28;20739;-68
2022/06/12 09:46:03;;;;;;;0.00;0.00;;;26.30;94.50;;;;;;4995069;28;20235;-67
2022/06/12 09:48:54;;;;;;;0.00;0.00;;;26.30;94.70;;;;;;5012196;28;20196;-68
2022/06/12 09:51:34;;;;;;;0.00;0.00;;;26.60;94.70;;;;;;5012271;28;20539;-70
2022/06/12 09:54:17;;;;;;;0.00;0.00;;;26.60;93.90;;;;;;5015000;28;20254;-66
2022/06/12 09:56:48;;;;;;;0.00;0.00;;;26.20;93.80;;;;;;5013017;28;20199;-66
2022/06/12 09:59:21;;;;;;;0.00;0.00;;;26.10;94.30;;;;;;5013440;28;20702;-66
2022/06/12 10:01:55;;;;;;;0.00;0.00;;;26.10;94.30;;;;;;5013235;28;20216;-66
2022/06/12 10:04:29;;;;;;;0.52;0.13;;;26.40;94.20;;;;;;5016480;28;20200;-69
2022/06/12 10:07:04;;;;;;;0.00;0.00;;;26.20;94.40;;;;;;5016988;28;20265;-68
2022/06/12 10:09:35;;;;;;;0.00;0.00;;;26.30;94.40;;;;;;5015818;28;20251;-68
2022/06/12 10:12:08;;;;;;;0.00;0.00;;;26.50;94.30;;;;;;5016149;28;20222;-67
2022/06/12 10:14:39;;;;;;;0.00;0.00;;;26.90;93.80;;;;;;5016224;28;20196;-70
2022/06/12 10:17:12;;;;;;;0.00;0.00;;;27.00;93.30;;;;;;5012235;28;20237;-68
2022/06/12 10:19:46;;;;;;;0.00;0.00;;;26.90;93.30;;;;;;5011642;28;20274;-67
2022/06/12 10:22:30;;;;;;;0.00;0.00;;;27.10;93.50;;;;;;5011726;28;20281;-70
2022/06/12 10:25:00;;;;;;;0.00;0.00;;;27.20;93.70;;;;;;5012187;28;20202;-68
2022/06/12 10:27:40;;;;;;;0.00;0.00;;;27.40;93.60;;;;;;5012562;28;20230;-68
2022/06/12 10:30:22;;;;;;;0.00;0.00;;;27.60;93.40;;;;;;5009651;28;20251;-68
2022/06/12 10:32:53;;;;;;;0.00;0.00;;;27.70;93.10;;;;;;5000823;28;20232;-68
2022/06/12 10:35:25;;;;;;;0.00;0.00;;;27.50;92.70;;;;;;4992320;28;20605;-68
2022/06/12 10:38:03;;;;;;;0.00;0.00;;;27.70;92.50;;;;;;4992484;28;20275;-67
2022/06/12 10:40:31;;;;;;;0.00;0.00;;;27.90;92.40;;;;;;4992495;28;20204;-69
2022/06/12 10:43:03;;;;;;;0.00;0.00;;;27.90;92.40;;;;;;4992518;28;20228;-68
2022/06/12 10:45:33;;;;;;;0.00;0.00;;;27.60;92.50;;;;;;4992111;28;20200;-68
2022/06/12 10:48:04;;;;;;;0.00;0.00;;;27.40;92.90;;;;;;4991787;28;20695;-68
2022/06/12 10:50:35;;;;;;;0.00;0.00;;;27.40;93.20;;;;;;4992111;28;20235;-67
2022/06/12 10:53:17;;;;;;;0.00;0.00;;;27.60;93.00;;;;;;4999101;28;20282;-68
2022/06/12 10:55:56;;;;;;;0.00;0.00;;;27.60;92.00;;;;;;4992774;28;20279;-69
2022/06/12 10:59:09;;;;;;;0.00;0.00;;;27.80;91.90;;;;;;4996569;28;20192;-69
2022/06/12 11:01:45;;;;;;;0.00;0.00;;;28.20;91.70;;;;;;4996259;28;20615;-68
2022/06/12 11:04:24;;;;;;;0.00;0.00;;;28.00;92.30;;;;;;4996746;28;20230;-70
2022/06/12 11:07:06;;;;;;;0.00;0.00;;;27.60;91.80;;;;;;4995500;28;20303;-68
2022/06/12 11:09:45;;;;;;;0.00;0.00;;;27.50;91.90;;;;;;4995152;28;20200;-69
2022/06/12 11:12:29;;;;;;;0.00;0.00;;;27.70;91.90;;;;;;4996264;28;20574;-68
2022/06/12 11:15:09;;;;;;;0.00;0.00;;;28.10;91.40;;;;;;4996471;28;20325;-68
2022/06/12 11:17:50;;;;;;;0.00;0.00;;;28.20;90.30;;;;;;4996081;28;20192;-68
2022/06/12 11:20:35;;;;;;;0.00;0.00;;;28.20;90.90;;;;;;4995901;28;20246;-68
2022/06/12 11:23:18;;;;;;;0.00;0.00;;;28.20;90.50;;;;;;4995734;28;20216;-67
2022/06/12 11:26:25;;;;;;;0.00;0.00;;;28.20;90.00;;;;;;4995836;28;20227;-68
2022/06/12 11:29:07;;;;;;;0.00;0.00;;;28.30;89.20;;;;;;4995571;28;20192;-68
2022/06/12 11:31:51;;;;;;;0.00;0.00;;;28.10;88.40;;;;;;4995711;28;20655;-68
2022/06/12 11:34:31;;;;;;;0.00;0.00;;;28.40;87.50;;;;;;4995958;28;20208;-68
2022/06/12 11:37:12;;;;;;;0.00;0.00;;;28.60;87.20;;;;;;4995427;28;20539;-68
2022/06/12 11:39:52;;;;;;;0.00;0.00;;;28.80;88.10;;;;;;4995168;28;20213;-68
2022/06/12 11:42:46;;;;;;;0.00;0.00;;;28.70;89.50;;;;;;4995333;28;20228;-68
2022/06/12 11:45:46;;;;;;;0.00;0.00;;;28.60;89.20;;;;;;4994718;28;20200;-68
2022/06/12 11:48:31;;;;;;;0.00;0.00;;;28.40;85.30;;;;;;4995366;28;20231;-68
2022/06/12 11:51:06;;;;;;;0.00;0.00;;;28.70;86.30;;;;;;4995752;28;20528;-68
2022/06/12 11:53:45;;;;;;;0.00;0.00;;;28.40;86.70;;;;;;4994727;28;20707;-68
2022/06/12 11:56:22;;;;;;;0.00;0.00;;;28.40;84.30;;;;;;4994999;28;20267;-70
2022/06/12 11:59:06;;;;;;;0.00;0.00;;;28.40;84.20;;;;;;4994560;28;20196;-68
2022/06/12 12:01:40;;;;;;;0.00;0.00;;;28.60;83.60;;;;;;4994690;28;20255;-68
2022/06/12 12:04:36;;;;;;;0.00;0.00;;;28.30;84.20;;;;;;4995031;28;20266;-68
2022/06/12 12:07:18;;;;;;;0.00;0.00;;;28.20;85.70;;;;;;4994825;28;20224;-68
2022/06/12 12:10:03;;;;;;;0.00;0.00;;;28.20;85.80;;;;;;4993699;28;20258;-68
2022/06/12 12:12:37;;;;;;;0.00;0.00;;;28.10;86.10;;;;;;4994650;28;20215;-68
2022/06/12 12:15:12;;;;;;;0.00;0.00;;;28.30;84.10;;;;;;4994647;28;20204;-67
2022/06/12 12:17:44;;;;;;;0.00;0.00;;;28.40;84.30;;;;;;4994260;28;20199;-69
2022/06/12 12:20:20;;;;;;;0.00;0.00;;;28.60;84.90;;;;;;4994899;28;20224;-69
2022/06/12 12:22:52;;;;;;;0.00;0.00;;;28.80;84.70;;;;;;4996625;28;20251;-67
2022/06/12 12:25:28;;;;;;;0.00;0.00;;;28.70;85.10;;;;;;4999179;28;20265;-69
2022/06/12 12:28:00;;;;;;;0.00;0.00;;;29.00;84.30;;;;;;5014949;28;20219;-68
2022/06/12 12:30:31;;;;;;;0.00;0.00;;;28.80;84.10;;;;;;5004191;28;20201;-69
2022/06/12 12:33:02;;;;;;;0.00;0.00;;;28.80;84.60;;;;;;4995650;28;20232;-70
2022/06/12 12:41:15;;;;;;;0.00;0.00;;;28.70;85.80;;;;;;4994582;28;20220;-69
2022/06/12 12:43:53;;;;;;;0.00;0.00;;;28.40;86.30;;;;;;5084295;22;20234;-67
2022/06/12 12:46:23;;;;;;;0.00;0.00;;;28.70;85.30;;;;;;5073563;28;20193;-68
2022/06/12 12:48:54;;;;;;;0.00;0.00;;;28.60;85.90;;;;;;5073982;28;20305;-67
2022/06/12 12:51:28;;;;;;;0.00;0.00;;;28.60;85.70;;;;;;5073667;28;20209;-67
2022/06/12 12:54:11;;;;;;;0.00;0.00;;;28.80;82.90;;;;;;5073683;28;20223;-67
2022/06/12 12:56:50;;;;;;;0.00;0.00;;;28.90;84.00;;;;;;5073081;28;20189;-68
2022/06/12 12:59:20;;;;;;;0.00;0.00;;;28.80;83.80;;;;;;5072936;28;20235;-68
2022/06/12 13:01:50;;;;;;;0.00;0.00;;;29.10;79.20;;;;;;5073024;28;20208;-67
2022/06/12 13:04:20;;;;;;;0.00;0.00;;;29.00;80.20;;;;;;5073955;28;20198;-68
2022/06/12 13:07:10;;;;;;;0.00;0.00;;;28.60;80.60;;;;;;5066827;28;20263;-67
2022/06/12 13:10:06;;;;;;;0.00;0.00;;;28.70;80.50;;;;;;5057437;28;20197;-67
2022/06/12 13:12:53;;;;;;;0.00;0.00;;;28.30;78.70;;;;;;5072820;28;20217;-68
2022/06/12 13:15:33;;;;;;;0.00;0.00;;;28.30;77.10;;;;;;5057175;28;20202;-67
2022/06/12 13:18:09;;;;;;;0.00;0.00;;;28.10;77.70;;;;;;5052929;28;20194;-67
2022/06/12 13:20:55;;;;;;;0.00;0.00;;;28.30;78.60;;;;;;5051529;28;20570;-67
2022/06/12 13:23:46;;;;;;;0.00;0.00;;;28.10;77.60;;;;;;5052628;28;20771;-69
2022/06/12 13:26:22;;;;;;;0.00;0.00;;;28.20;75.80;;;;;;5054753;28;20280;-69
2022/06/12 13:28:57;;;;;;;0.00;0.00;;;28.30;73.40;;;;;;5061030;28;20336;-68
2022/06/12 13:31:29;;;;;;;0.00;0.00;;;28.30;73.20;;;;;;5065162;28;20209;-68
2022/06/12 13:33:58;;;;;;;0.00;0.00;;;28.50;72.90;;;;;;5071864;28;20696;-68
2022/06/12 13:36:32;;;;;;;0.00;0.00;;;28.30;72.90;;;;;;5053263;28;20206;-68
2022/06/12 13:39:03;;;;;;;0.00;0.00;;;28.30;73.10;;;;;;5052765;28;20198;-70
2022/06/12 13:41:38;;;;;;;0.00;0.00;;;28.00;74.60;;;;;;5052167;28;20544;-69
2022/06/12 13:44:25;;;;;;;0.00;0.00;;;28.20;75.00;;;;;;5052141;28;20202;-68